Detalii statie PROACUA CEFA [00001987]

Toti senzorii

Date Temperatura solului [C]Precipitatii [mm]Voltaj baterie [mV]Leaf Wetness [Min]HC Air temperature [C]HC Relative humidity [%]Punctul de roua [C]
medieminmaxsumaultimatimpmedieminmaxmediemediemin
2019-08-15 19:00:00 0 6434 20.52 20.15 20.9 0 0 0
2019-08-15 20:00:00 0 6424 19.24 18.11 20.22 0 0 0
2019-08-15 21:00:00 0 6416 16.43 15.38 17.82 0 0 0
2019-08-15 22:00:00 0 6416 14.97 14.4 15.78 0 0 0
2019-08-15 23:00:00 0 6406 13.59 13.11 14.1 0 0 0
2019-08-16 00:00:00 0 6406 13.02 12.55 13.85 0 0 0
2019-08-16 01:00:00 0 6396 12.33 11.96 12.63 0 0 0
2019-08-16 02:00:00 0 6386 11.95 11.43 12.31 0 0 0
2019-08-16 03:00:00 0 6386 10.61 9.73 11.49 0 0 0
2019-08-16 04:00:00 0 6386 10.45 9.71 11.88 0 0 0
2019-08-16 05:00:00 0.2 6386 9.7 9.12 10.14 0 0 0
2019-08-16 06:00:00 0 6386 9.55 9.17 10.12 0 0 0
2019-08-16 07:00:00 0 6396 10.85 9.81 12.7 0 0 0
2019-08-16 08:00:00 0 6386 13.78 12.67 14.84 0 0 0
2019-08-16 09:00:00 0 6386 17.18 15.1 18.77 0 0 0
2019-08-16 10:00:00 0 6386 20.22 19.14 21.67 0 0 0
2019-08-16 11:00:00 0 6386 22.72 21.93 23.69 0 0 0
2019-08-16 12:00:00 0 6386 24.3 23.46 25.58 0 0 0
2019-08-16 13:00:00 0 6396 25.07 24.59 25.63 0 0 0
2019-08-16 14:00:00 0 6406 25.77 24.4 26.76 0 0 0
2019-08-16 15:00:00 0 6406 26.59 25.13 27.75 0 0 0
2019-08-16 16:00:00 0 6416 26.12 24.51 27.94 0 0 0
2019-08-16 17:00:00 0 6416 26.13 25.36 26.74 0 0 0
2019-08-16 18:00:00 0 6416 24.44 23.86 25.33 0 0 0
2019-08-16 19:00:00 0 6406 23.35 21.15 25.12 0 0 0
2019-08-16 20:00:00 0 6406 18.91 17.43 20.77 0 0 0
2019-08-16 21:00:00 0 6386 17.03 16.37 17.52 0 0 0
2019-08-16 22:00:00 0 6386 17.31 16.33 18.19 0 0 0
2019-08-16 23:00:00 0 6386 17.24 16.11 17.94 0 0 0
2019-08-17 00:00:00 0 6386 15.95 15.11 16.45 0 0 0
2019-08-17 01:00:00 0 6386 14.3 13.67 14.78 0 0 0
2019-08-17 02:00:00 0 6376 14.78 13.59 16.2 0 0 0
2019-08-17 03:00:00 0 6376 14.72 14.23 15.15 0 0 0
2019-08-17 04:00:00 0 6376 13.61 12.93 14.01 0 0 0
2019-08-17 05:00:00 0 6376 12.43 12.26 12.72 0 0 0
2019-08-17 06:00:00 0 6376 12.36 12.18 12.56 0 0 0
2019-08-17 07:00:00 0 6376 12.52 11.98 13.84 0 0 0
2019-08-17 08:00:00 0 6386 16.01 14.25 17.63 0 0 0
2019-08-17 09:00:00 0 6376 18.87 17.63 20.16 0 0 0
2019-08-17 10:00:00 0 6376 21.73 20.14 23.21 0 0 0
2019-08-17 11:00:00 0 6376 23.93 22.81 25.02 0 0 0
2019-08-17 12:00:00 0 6376 26.14 25.47 26.79 0 0 0
2019-08-17 13:00:00 0 6396 25.98 24.76 27.38 0 0 0
2019-08-17 14:00:00 0 6406 25.45 24.93 26.49 0 0 0
2019-08-17 15:00:00 0 6406 26.28 25.4 27.27 0 0 0
2019-08-17 16:00:00 0 6416 26.47 25.53 27.44 0 0 0
2019-08-17 17:00:00 0 6416 27.01 25.94 27.49 0 0 0
2019-08-17 18:00:00 0 6406 27.52 26.8 28.2 0 0 0